Time;durP1;ratioP1;P1;durP2;ratioP2;P2;SDS_P1;SDS_P2;PMS_P1;PMS_P2;Temp;Humidity;BMP_temperature;BMP_pressure;BME280_temperature;BME280_humidity;BME280_pressure;Samples;Min_cycle;Max_cycle;Signal;HPM_P1;HPM_P2
2021/03/02 00:00:50;;;;;;;;;;;;;;;;;;5026479;28;19940;-62
2021/03/02 00:03:17;;;;;;;;;;;;;;;;;;5018231;28;19979;-62
2021/03/02 00:05:45;;;;;;;;;;;;;;;;;;5015780;28;19925;-62
2021/03/02 00:08:12;;;;;;;;;;;;;;;;;;5019182;28;19929;-61
2021/03/02 00:10:42;;;;;;;;;;;;;;;;;;5028318;28;19937;-61
2021/03/02 00:13:11;;;;;;;;;;;;;;;;;;5026559;28;20341;-63
2021/03/02 00:15:38;;;;;;;;;;;;;;;;;;5024703;28;19937;-63
2021/03/02 00:18:05;;;;;;;;;;;;;;;;;;5024659;28;19926;-63
2021/03/02 00:20:33;;;;;;;;;;;;;;;;;;5015888;28;20387;-63
2021/03/02 00:23:00;;;;;;;;;;;;;;;;;;5023080;28;19925;-62
2021/03/02 00:25:27;;;;;;;;;;;;;;;;;;5013991;28;20373;-62
2021/03/02 00:27:54;;;;;;;;;;;;;;;;;;5016335;28;19925;-62
2021/03/02 00:30:22;;;;;;;;;;;;;;;;;;5021371;28;19934;-63
2021/03/02 00:32:49;;;;;;;;;;;;;;;;;;5028727;28;20384;-63
2021/03/02 00:35:16;;;;;;;;;;;;;;;;;;5021948;28;20412;-63
2021/03/02 00:37:47;;;;;;;;;;;;;;;;;;5021068;28;20292;-61
2021/03/02 00:40:14;;;;;;;;;;;;;;;;;;5018141;28;19944;-62
2021/03/02 00:42:47;;;;;;;;;;;;;;;;;;5026127;28;19933;-62
2021/03/02 00:45:14;;;;;;;;;;;;;;;;;;5024302;28;19995;-62
2021/03/02 00:47:42;;;;;;;;;;;;;;;;;;5007251;28;19991;-63
2021/03/02 00:50:09;;;;;;;;;;;;;;;;;;5011219;28;19929;-63
2021/03/02 00:52:36;;;;;;;;;;;;;;;;;;5017317;28;19933;-63
2021/03/02 00:55:04;;;;;;;;;;;;;;;;;;5021912;28;19926;-63
2021/03/02 00:57:31;;;;;;;;;;;;;;;;;;5026913;28;19971;-63
2021/03/02 00:59:58;;;;;;;;;;;;;;;;;;5026053;28;20324;-61
2021/03/02 01:02:25;;;;;;;;;;;;;;;;;;5027126;28;19929;-62
2021/03/02 01:04:53;;;;;;;;;;;;;;;;;;5018483;28;20268;-62
2021/03/02 01:07:20;;;;;;;;;;;;;;;;;;5012499;28;19929;-62
2021/03/02 01:09:47;;;;;;;;;;;;;;;;;;5019344;28;19933;-62
2021/03/02 01:12:14;;;;;;;;;;;;;;;;;;5023139;28;19969;-63
2021/03/02 01:14:41;;;;;;;;;;;;;;;;;;5022138;28;19929;-62
2021/03/02 01:17:08;;;;;;;;;;;;;;;;;;5012241;28;19926;-63
2021/03/02 01:19:36;;;;;;;;;;;;;;;;;;5027887;28;19972;-62
2021/03/02 01:22:03;;;;;;;;;;;;;;;;;;5032651;28;19925;-62
2021/03/02 01:24:30;;;;;;;;;;;;;;;;;;5028229;28;19983;-62
2021/03/02 01:26:57;;;;;;;;;;;;;;;;;;5022950;28;20411;-62
2021/03/02 01:29:24;;;;;;;;;;;;;;;;;;5023590;28;20457;-61
2021/03/02 01:31:51;;;;;;;;;;;;;;;;;;5022557;28;20380;-62
2021/03/02 01:34:19;;;;;;;;;;;;;;;;;;5011991;28;20394;-63
2021/03/02 01:36:46;;;;;;;;;;;;;;;;;;5021070;28;19935;-62
2021/03/02 01:39:13;;;;;;;;;;;;;;;;;;5013530;28;19995;-62
2021/03/02 01:41:40;;;;;;;;;;;;;;;;;;5019613;28;19956;-62
2021/03/02 01:44:07;;;;;;;;;;;;;;;;;;5026624;28;20398;-62
2021/03/02 01:46:35;;;;;;;;;;;;;;;;;;5021660;28;19925;-62
2021/03/02 01:49:02;;;;;;;;;;;;;;;;;;5022428;28;19929;-63
2021/03/02 01:51:29;;;;;;;;;;;;;;;;;;5016979;28;20360;-63
2021/03/02 01:53:56;;;;;;;;;;;;;;;;;;5024882;28;19947;-63
2021/03/02 01:56:24;;;;;;;;;;;;;;;;;;5020856;28;19932;-64
2021/03/02 01:58:51;;;;;;;;;;;;;;;;;;5011682;28;19929;-63
2021/03/02 02:01:18;;;;;;;;;;;;;;;;;;5022919;23;19932;-87
2021/03/02 02:03:45;;;;;;;;;;;;;;;;;;5014883;28;20250;-87
2021/03/02 02:06:12;;;;;;;;;;;;;;;;;;5023942;28;20376;-87
2021/03/02 02:08:40;;;;;;;;;;;;;;;;;;5018057;28;19925;-86
2021/03/02 02:11:07;;;;;;;;;;;;;;;;;;5023704;28;19933;-86
2021/03/02 02:13:36;;;;;;;;;;;;;;;;;;5026098;28;19936;-86
2021/03/02 02:16:04;;;;;;;;;;;;;;;;;;5018946;28;19932;-86
2021/03/02 02:18:31;;;;;;;;;;;;;;;;;;5021359;28;19926;-86
2021/03/02 02:20:58;;;;;;;;;;;;;;;;;;5016686;28;20443;-86
2021/03/02 02:23:26;;;;;;;;;;;;;;;;;;5029892;28;19929;-86
2021/03/02 02:25:53;;;;;;;;;;;;;;;;;;5032241;28;19948;-87
2021/03/02 02:28:21;;;;;;;;;;;;;;;;;;5022026;28;19933;-85
2021/03/02 02:30:48;;;;;;;;;;;;;;;;;;5017807;28;19930;-87
2021/03/02 02:33:16;;;;;;;;;;;;;;;;;;5014879;28;19934;-87
2021/03/02 02:35:43;;;;;;;;;;;;;;;;;;5014379;28;19934;-87
2021/03/02 02:38:10;;;;;;;;;;;;;;;;;;5017119;28;20350;-86
2021/03/02 02:40:37;;;;;;;;;;;;;;;;;;5030576;28;19995;-87
2021/03/02 02:43:05;;;;;;;;;;;;;;;;;;5023738;28;19926;-86
2021/03/02 02:45:33;;;;;;;;;;;;;;;;;;5014661;28;19988;-86
2021/03/02 02:48:00;;;;;;;;;;;;;;;;;;5026982;28;20021;-86
2021/03/02 02:50:27;;;;;;;;;;;;;;;;;;5029753;28;19931;-87
2021/03/02 02:52:55;;;;;;;;;;;;;;;;;;5014773;28;19979;-86
2021/03/02 02:55:24;;;;;;;;;;;;;;;;;;5014216;28;20036;-87
2021/03/02 02:57:51;;;;;;;;;;;;;;;;;;5022165;28;20392;-87
2021/03/02 03:00:18;;;;;;;;;;;;;;;;;;5019915;28;20411;-87
2021/03/02 03:02:46;;;;;;;;;;;;;;;;;;5027543;28;20336;-87
2021/03/02 03:05:13;;;;;;;;;;;;;;;;;;5017079;28;20020;-86
2021/03/02 03:07:40;;;;;;;;;;;;;;;;;;5023397;28;19961;-86
2021/03/02 03:10:19;;;;;;;;;;;;;;;;;;5017014;28;20225;-86
2021/03/02 03:12:47;;;;;;;;;;;;;;;;;;5022205;28;19930;-86
2021/03/02 03:15:14;;;;;;;;;;;;;;;;;;5022628;28;19933;-86
2021/03/02 03:17:41;;;;;;;;;;;;;;;;;;5020310;28;19926;-86
2021/03/02 03:20:08;;;;;;;;;;;;;;;;;;5020660;28;19976;-86
2021/03/02 03:22:35;;;;;;;;;;;;;;;;;;5022776;28;19992;-86
2021/03/02 03:25:03;;;;;;;;;;;;;;;;;;5017141;28;19932;-86
2021/03/02 03:27:30;;;;;;;;;;;;;;;;;;5022941;28;19968;-86
2021/03/02 03:29:57;;;;;;;;;;;;;;;;;;5019521;28;19929;-86
2021/03/02 03:32:25;;;;;;;;;;;;;;;;;;5022366;28;20372;-86
2021/03/02 03:34:52;;;;;;;;;;;;;;;;;;5019920;28;19928;-86
2021/03/02 03:37:19;;;;;;;;;;;;;;;;;;5022130;28;20374;-86
2021/03/02 03:39:46;;;;;;;;;;;;;;;;;;5017655;28;20375;-86
2021/03/02 03:42:14;;;;;;;;;;;;;;;;;;5016818;28;20021;-86
2021/03/02 03:44:46;;;;;;;;;;;;;;;;;;5022450;28;19968;-86
2021/03/02 03:47:13;;;;;;;;;;;;;;;;;;5016744;28;20020;-86
2021/03/02 03:49:40;;;;;;;;;;;;;;;;;;5024935;28;19932;-86
2021/03/02 03:52:07;;;;;;;;;;;;;;;;;;5023918;28;20038;-86
2021/03/02 03:54:35;;;;;;;;;;;;;;;;;;5027344;28;19931;-86
2021/03/02 03:57:02;;;;;;;;;;;;;;;;;;5007928;28;19951;-86
2021/03/02 03:59:29;;;;;;;;;;;;;;;;;;5019516;28;19940;-86
2021/03/02 04:01:56;;;;;;;;;;;;;;;;;;5021079;28;19929;-86
2021/03/02 04:26:59;;;;;;;;;;;;;;;;;;5028106;28;19924;-86
2021/03/02 04:29:26;;;;;;;;;;;;;;;;;;5019443;28;19972;-87
2021/03/02 04:31:53;;;;;;;;;;;;;;;;;;5025872;28;19995;-87
2021/03/02 04:34:20;;;;;;;;;;;;;;;;;;5033552;28;20000;-86
2021/03/02 04:36:48;;;;;;;;;;;;;;;;;;5032474;28;19936;-87
2021/03/02 04:39:15;;;;;;;;;;;;;;;;;;5015327;28;20024;-87
2021/03/02 04:41:42;;;;;;;;;;;;;;;;;;5022223;28;20011;-86
2021/03/02 04:44:09;;;;;;;;;;;;;;;;;;5017531;28;20012;-87
2021/03/02 04:46:37;;;;;;;;;;;;;;;;;;5020098;28;19925;-87
2021/03/02 04:49:04;;;;;;;;;;;;;;;;;;5018573;28;19929;-87
2021/03/02 04:51:31;;;;;;;;;;;;;;;;;;5026678;28;19972;-87
2021/03/02 04:53:58;;;;;;;;;;;;;;;;;;5033910;28;20028;-87
2021/03/02 04:56:25;;;;;;;;;;;;;;;;;;5017446;28;20000;-87
2021/03/02 04:58:52;;;;;;;;;;;;;;;;;;5018943;28;19964;-87
2021/03/02 05:01:19;;;;;;;;;;;;;;;;;;5023262;28;19925;-87
2021/03/02 05:03:47;;;;;;;;;;;;;;;;;;5022715;28;20024;-87
2021/03/02 05:06:14;;;;;;;;;;;;;;;;;;5020231;28;20063;-86
2021/03/02 05:08:41;;;;;;;;;;;;;;;;;;5016538;28;19984;-86
2021/03/02 05:11:08;;;;;;;;;;;;;;;;;;5020840;28;20020;-87
2021/03/02 05:13:35;;;;;;;;;;;;;;;;;;5020174;28;19980;-87
2021/03/02 05:16:10;;;;;;;;;;;;;;;;;;5021541;28;19930;-87
2021/03/02 05:18:38;;;;;;;;;;;;;;;;;;5017249;28;20060;-87
2021/03/02 05:21:05;;;;;;;;;;;;;;;;;;5021480;28;19987;-87
2021/03/02 05:23:33;;;;;;;;;;;;;;;;;;5020518;28;19965;-87
2021/03/02 05:26:00;;;;;;;;;;;;;;;;;;5024850;28;20030;-87
2021/03/02 05:28:27;;;;;;;;;;;;;;;;;;5014116;28;20380;-87
2021/03/02 05:30:54;;;;;;;;;;;;;;;;;;5016365;28;20695;-87
2021/03/02 05:33:21;;;;;;;;;;;;;;;;;;5016290;28;20379;-87
2021/03/02 05:35:49;;;;;;;;;;;;;;;;;;5014288;28;19925;-87
2021/03/02 05:38:16;;;;;;;;;;;;;;;;;;5023571;28;19989;-87
2021/03/02 05:40:43;;;;;;;;;;;;;;;;;;5021402;28;19975;-87
2021/03/02 05:43:15;;;;;;;;;;;;;;;;;;5023298;28;19925;-88
2021/03/02 05:45:42;;;;;;;;;;;;;;;;;;5015898;28;20024;-88
2021/03/02 05:48:09;;;;;;;;;;;;;;;;;;5022435;28;19987;-88
2021/03/02 05:50:36;;;;;;;;;;;;;;;;;;5019892;28;19926;-88
2021/03/02 05:53:04;;;;;;;;;;;;;;;;;;5019209;28;19933;-85
2021/03/02 05:55:31;;;;;;;;;;;;;;;;;;5024782;28;19956;-85
2021/03/02 05:57:58;;;;;;;;;;;;;;;;;;5022640;28;20348;-88
2021/03/02 06:00:26;;;;;;;;;;;;;;;;;;5016253;28;19933;-88
2021/03/02 06:02:53;;;;;;;;;;;;;;;;;;5016619;28;19968;-88
2021/03/02 06:05:20;;;;;;;;;;;;;;;;;;5026859;28;20466;-88
2021/03/02 06:07:47;;;;;;;;;;;;;;;;;;5020777;28;19964;-86
2021/03/02 06:10:14;;;;;;;;;;;;;;;;;;5017737;28;20002;-87
2021/03/02 06:12:41;;;;;;;;;;;;;;;;;;5015896;28;19964;-87
2021/03/02 06:15:09;;;;;;;;;;;;;;;;;;5031537;28;19931;-87
2021/03/02 06:17:36;;;;;;;;;;;;;;;;;;5018379;28;20427;-87
2021/03/02 06:20:03;;;;;;;;;;;;;;;;;;5029668;28;20324;-88
2021/03/02 06:22:30;;;;;;;;;;;;;;;;;;5010062;28;19934;-87
2021/03/02 06:24:57;;;;;;;;;;;;;;;;;;5019086;28;19980;-87
2021/03/02 06:27:25;;;;;;;;;;;;;;;;;;5022223;28;20361;-88
2021/03/02 06:29:52;;;;;;;;;;;;;;;;;;5014654;28;19930;-89
2021/03/02 06:32:19;;;;;;;;;;;;;;;;;;5011434;28;19930;-88
2021/03/02 06:34:46;;;;;;;;;;;;;;;;;;5015483;28;19925;-87
2021/03/02 06:37:13;;;;;;;;;;;;;;;;;;5020692;28;19925;-88
2021/03/02 06:39:42;;;;;;;;;;;;;;;;;;5024032;28;20372;-85
2021/03/02 06:42:12;;;;;;;;;;;;;;;;;;5025249;28;19967;-85
2021/03/02 06:44:40;;;;;;;;;;;;;;;;;;5018022;28;19926;-85
2021/03/02 06:47:14;;;;;;;;;;;;;;;;;;5014023;28;19989;-85
2021/03/02 06:49:41;;;;;;;;;;;;;;;;;;5030477;28;19976;-87
2021/03/02 06:52:08;;;;;;;;;;;;;;;;;;5030498;28;19987;-87
2021/03/02 06:54:36;;;;;;;;;;;;;;;;;;5019257;28;20019;-88
2021/03/02 06:57:03;;;;;;;;;;;;;;;;;;5017001;28;19936;-87
2021/03/02 06:59:30;;;;;;;;;;;;;;;;;;5020801;28;19929;-88
2021/03/02 07:01:57;;;;;;;;;;;;;;;;;;5023246;28;20020;-88
2021/03/02 07:04:25;;;;;;;;;;;;;;;;;;5016291;28;19937;-87
2021/03/02 07:06:54;;;;;;;;;;;;;;;;;;5009676;28;19968;-87
2021/03/02 07:09:21;;;;;;;;;;;;;;;;;;5011387;28;20028;-88
2021/03/02 07:11:49;;;;;;;;;;;;;;;;;;5009006;28;19929;-88
2021/03/02 07:14:16;;;;;;;;;;;;;;;;;;5002066;28;20296;-88
2021/03/02 07:16:44;;;;;;;;;;;;;;;;;;5011977;28;19972;-87
2021/03/02 07:19:11;;;;;;;;;;;;;;;;;;5006129;28;19965;-84
2021/03/02 07:21:39;;;;;;;;;;;;;;;;;;5013651;28;20254;-85
2021/03/02 07:24:07;;;;;;;;;;;;;;;;;;5013806;28;20328;-85
2021/03/02 07:26:34;;;;;;;;;;;;;;;;;;5009024;28;19929;-85
2021/03/02 07:29:01;;;;;;;;;;;;;;;;;;5012696;28;19929;-85
2021/03/02 07:31:28;;;;;;;;;;;;;;;;;;5013843;28;19933;-84
2021/03/02 07:33:56;;;;;;;;;;;;;;;;;;5013498;28;19930;-86
2021/03/02 07:36:23;;;;;;;;;;;;;;;;;;5014187;28;19929;-86
2021/03/02 07:38:50;;;;;;;;;;;;;;;;;;5012327;28;19933;-86
2021/03/02 07:41:18;;;;;;;;;;;;;;;;;;5012391;28;19964;-84
2021/03/02 07:43:45;;;;;;;;;;;;;;;;;;5007871;28;19936;-85
2021/03/02 07:46:12;;;;;;;;;;;;;;;;;;5023262;28;19991;-86
2021/03/02 07:48:39;;;;;;;;;;;;;;;;;;5010382;28;19956;-84
2021/03/02 07:51:07;;;;;;;;;;;;;;;;;;5008561;28;19929;-86
2021/03/02 07:53:34;;;;;;;;;;;;;;;;;;5003822;28;19930;-85
2021/03/02 07:56:02;;;;;;;;;;;;;;;;;;5006160;28;19929;-86
2021/03/02 07:58:29;;;;;;;;;;;;;;;;;;5008832;28;19929;-85
2021/03/02 08:00:56;;;;;;;;;;;;;;;;;;5010693;28;19930;-85
2021/03/02 08:03:24;;;;;;;;;;;;;;;;;;5017381;28;20356;-86
2021/03/02 08:05:52;;;;;;;;;;;;;;;;;;5009767;28;19929;-86
2021/03/02 08:08:19;;;;;;;;;;;;;;;;;;5010205;28;19936;-86
2021/03/02 08:10:49;;;;;;;;;;;;;;;;;;5011083;28;19929;-86
2021/03/02 08:13:17;;;;;;;;;;;;;;;;;;5010702;28;19971;-86
2021/03/02 08:15:45;;;;;;;;;;;;;;;;;;5012996;28;19933;-86
2021/03/02 08:18:18;;;;;;;;;;;;;;;;;;5009220;28;19933;-87
2021/03/02 08:20:46;;;;;;;;;;;;;;;;;;5009736;28;20376;-87
2021/03/02 08:23:15;;;;;;;;;;;;;;;;;;5009830;28;19933;-86
2021/03/02 08:25:45;;;;;;;;;;;;;;;;;;5009859;28;19971;-86
2021/03/02 08:28:13;;;;;;;;;;;;;;;;;;5018710;28;19926;-87
2021/03/02 08:30:42;;;;;;;;;;;;;;;;;;5020175;28;19956;-87
2021/03/02 08:33:11;;;;;;;;;;;;;;;;;;5022620;28;19930;-86
2021/03/02 08:35:39;;;;;;;;;;;;;;;;;;5019822;28;19996;-85
2021/03/02 08:38:07;;;;;;;;;;;;;;;;;;5019276;28;20016;-86
2021/03/02 08:40:34;;;;;;;;;;;;;;;;;;5008894;28;19925;-86
2021/03/02 08:43:02;;;;;;;;;;;;;;;;;;5010738;28;20020;-86
2021/03/02 08:45:29;;;;;;;;;;;;;;;;;;5014118;28;19933;-86
2021/03/02 08:47:56;;;;;;;;;;;;;;;;;;5016733;28;20016;-86
2021/03/02 08:50:24;;;;;;;;;;;;;;;;;;5015613;28;20424;-86
2021/03/02 08:52:51;;;;;;;;;;;;;;;;;;5013911;28;20028;-86
2021/03/02 08:55:19;;;;;;;;;;;;;;;;;;5013259;28;20325;-86
2021/03/02 08:57:46;;;;;;;;;;;;;;;;;;5013839;28;19925;-86
2021/03/02 09:00:13;;;;;;;;;;;;;;;;;;5015607;28;20033;-86
2021/03/02 09:02:41;;;;;;;;;;;;;;;;;;5022001;28;19926;-86
2021/03/02 09:05:09;;;;;;;;;;;;;;;;;;5021746;28;19944;-86
2021/03/02 09:07:36;;;;;;;;;;;;;;;;;;5015854;28;20032;-86
2021/03/02 09:10:04;;;;;;;;;;;;;;;;;;5008309;28;19933;-87
2021/03/02 09:12:31;;;;;;;;;;;;;;;;;;5013479;28;19929;-87
2021/03/02 09:14:59;;;;;;;;;;;;;;;;;;5014456;28;19934;-87
2021/03/02 09:17:27;;;;;;;;;;;;;;;;;;5012134;28;19944;-86
2021/03/02 09:19:54;;;;;;;;;;;;;;;;;;5011265;28;19937;-86
2021/03/02 09:22:24;;;;;;;;;;;;;;;;;;5013089;28;19933;-86
2021/03/02 09:24:53;;;;;;;;;;;;;;;;;;5010230;28;19971;-86
2021/03/02 09:27:21;;;;;;;;;;;;;;;;;;5012204;28;20031;-86
2021/03/02 09:29:48;;;;;;;;;;;;;;;;;;5011590;28;19937;-86
2021/03/02 09:32:16;;;;;;;;;;;;;;;;;;5012189;28;19926;-86
2021/03/02 09:34:44;;;;;;;;;;;;;;;;;;5011375;28;19926;-86
2021/03/02 09:37:11;;;;;;;;;;;;;;;;;;5010852;28;19937;-86
2021/03/02 09:39:39;;;;;;;;;;;;;;;;;;5013924;28;19957;-86
2021/03/02 09:42:07;;;;;;;;;;;;;;;;;;5019358;28;20019;-85
2021/03/02 09:44:34;;;;;;;;;;;;;;;;;;5015078;28;20029;-86
2021/03/02 09:47:02;;;;;;;;;;;;;;;;;;5012548;28;19929;-86
2021/03/02 09:49:30;;;;;;;;;;;;;;;;;;5006425;28;20395;-85
2021/03/02 09:51:57;;;;;;;;;;;;;;;;;;5003355;28;19929;-85
2021/03/02 09:54:25;;;;;;;;;;;;;;;;;;5012745;28;20563;-85
2021/03/02 09:56:52;;;;;;;;;;;;;;;;;;5017032;28;19925;-85
2021/03/02 09:59:19;;;;;;;;;;;;;;;;;;5005403;28;20440;-86
2021/03/02 10:01:47;;;;;;;;;;;;;;;;;;5003238;28;20825;-85
2021/03/02 10:04:15;;;;;;;;;;;;;;;;;;5013077;28;19938;-85
2021/03/02 10:06:42;;;;;;;;;;;;;;;;;;5011279;28;19936;-85
2021/03/02 10:09:10;;;;;;;;;;;;;;;;;;5012948;28;19956;-85
2021/03/02 10:11:37;;;;;;;;;;;;;;;;;;5011175;28;19926;-85
2021/03/02 10:14:07;;;;;;;;;;;;;;;;;;5013561;28;19937;-85
2021/03/02 10:16:35;;;;;;;;;;;;;;;;;;5024779;28;19940;-85
2021/03/02 10:19:03;;;;;;;;;;;;;;;;;;5010920;28;19981;-85
2021/03/02 10:21:31;;;;;;;;;;;;;;;;;;5011985;28;19925;-85
2021/03/02 10:23:58;;;;;;;;;;;;;;;;;;5011031;28;19952;-85
2021/03/02 10:26:26;;;;;;;;;;;;;;;;;;5008883;28;19985;-85
2021/03/02 10:28:53;;;;;;;;;;;;;;;;;;5003197;28;19930;-85
2021/03/02 10:31:21;;;;;;;;;;;;;;;;;;5013100;28;19929;-85
2021/03/02 10:33:48;;;;;;;;;;;;;;;;;;5015008;28;20280;-85
2021/03/02 10:36:16;;;;;;;;;;;;;;;;;;5016193;28;19925;-86
2021/03/02 10:38:44;;;;;;;;;;;;;;;;;;5013923;28;19925;-86
2021/03/02 10:41:11;;;;;;;;;;;;;;;;;;5017291;28;19926;-85
2021/03/02 10:43:39;;;;;;;;;;;;;;;;;;5016839;28;20139;-85
2021/03/02 10:46:06;;;;;;;;;;;;;;;;;;5019329;28;19929;-85
2021/03/02 10:48:33;;;;;;;;;;;;;;;;;;5019517;28;19933;-85
2021/03/02 10:51:01;;;;;;;;;;;;;;;;;;5020061;28;19925;-85
2021/03/02 10:53:29;;;;;;;;;;;;;;;;;;5019371;28;20269;-85
2021/03/02 10:55:56;;;;;;;;;;;;;;;;;;5021645;28;20183;-85
2021/03/02 10:58:24;;;;;;;;;;;;;;;;;;5021088;28;19929;-85
2021/03/02 11:00:52;;;;;;;;;;;;;;;;;;5021366;28;19929;-85
2021/03/02 11:03:19;;;;;;;;;;;;;;;;;;5023030;28;19930;-86
2021/03/02 11:05:47;;;;;;;;;;;;;;;;;;5017955;28;19968;-85
2021/03/02 11:08:15;;;;;;;;;;;;;;;;;;5025686;28;20076;-85
2021/03/02 11:10:42;;;;;;;;;;;;;;;;;;5022683;28;20273;-85
2021/03/02 11:13:11;;;;;;;;;;;;;;;;;;5024077;28;19982;-86
2021/03/02 11:15:39;;;;;;;;;;;;;;;;;;5022388;28;19975;-86
2021/03/02 11:18:06;;;;;;;;;;;;;;;;;;5024599;28;19914;-86
2021/03/02 11:20:35;;;;;;;;;;;;;;;;;;5025554;28;19926;-87
2021/03/02 11:23:02;;;;;;;;;;;;;;;;;;5026871;28;19964;-87
2021/03/02 11:25:33;;;;;;;;;;;;;;;;;;5029050;28;19926;-86
2021/03/02 11:28:01;;;;;;;;;;;;;;;;;;5017937;28;19929;-87
2021/03/02 11:30:31;;;;;;;;;;;;;;;;;;5029559;28;19934;-87
2021/03/02 11:32:58;;;;;;;;;;;;;;;;;;5029798;28;19929;-87
2021/03/02 11:35:25;;;;;;;;;;;;;;;;;;5030392;28;19989;-86
2021/03/02 11:37:53;;;;;;;;;;;;;;;;;;5024227;28;19957;-86
2021/03/02 11:40:20;;;;;;;;;;;;;;;;;;5020431;28;19935;-86
2021/03/02 11:42:49;;;;;;;;;;;;;;;;;;5025180;28;19968;-87
2021/03/02 11:45:17;;;;;;;;;;;;;;;;;;5014760;28;19930;-87
2021/03/02 11:47:45;;;;;;;;;;;;;;;;;;5014208;28;20265;-88
2021/03/02 11:50:12;;;;;;;;;;;;;;;;;;5012662;28;19934;-88
2021/03/02 11:52:39;;;;;;;;;;;;;;;;;;5014441;28;19933;-89
2021/03/02 11:55:07;;;;;;;;;;;;;;;;;;5013577;28;19929;-87
2021/03/02 11:57:36;;;;;;;;;;;;;;;;;;5012207;28;20369;-87
2021/03/02 12:00:04;;;;;;;;;;;;;;;;;;5014014;28;19929;-87
2021/03/02 12:02:33;;;;;;;;;;;;;;;;;;5019146;28;19929;-87
2021/03/02 12:05:01;;;;;;;;;;;;;;;;;;5012819;28;20336;-86
2021/03/02 12:07:28;;;;;;;;;;;;;;;;;;5012101;28;19930;-87
2021/03/02 12:09:55;;;;;;;;;;;;;;;;;;5009968;28;20369;-87
2021/03/02 12:12:22;;;;;;;;;;;;;;;;;;5021401;28;19965;-87
2021/03/02 12:14:50;;;;;;;;;;;;;;;;;;5011328;28;20376;-87
2021/03/02 12:17:20;;;;;;;;;;;;;;;;;;5011897;28;20411;-87
2021/03/02 12:19:47;;;;;;;;;;;;;;;;;;5007874;28;19929;-87
2021/03/02 12:22:15;;;;;;;;;;;;;;;;;;5011017;28;19926;-86
2021/03/02 12:24:42;;;;;;;;;;;;;;;;;;5020017;28;19952;-87
2021/03/02 12:27:10;;;;;;;;;;;;;;;;;;5012900;28;19940;-87
2021/03/02 12:29:38;;;;;;;;;;;;;;;;;;5011248;28;19925;-87
2021/03/02 12:32:05;;;;;;;;;;;;;;;;;;5008136;28;19929;-86
2021/03/02 12:34:33;;;;;;;;;;;;;;;;;;5011636;28;20379;-87
2021/03/02 12:37:03;;;;;;;;;;;;;;;;;;5005583;28;19926;-86
2021/03/02 12:39:31;;;;;;;;;;;;;;;;;;5011101;28;19925;-86
2021/03/02 12:41:58;;;;;;;;;;;;;;;;;;5011100;28;19999;-85
2021/03/02 12:44:26;;;;;;;;;;;;;;;;;;5013061;28;19929;-85
2021/03/02 12:46:53;;;;;;;;;;;;;;;;;;5009154;28;19925;-86
2021/03/02 12:49:21;;;;;;;;;;;;;;;;;;5007768;28;19926;-86
2021/03/02 12:51:49;;;;;;;;;;;;;;;;;;5013419;28;19972;-86
2021/03/02 12:54:16;;;;;;;;;;;;;;;;;;5021664;28;19991;-85
2021/03/02 12:56:44;;;;;;;;;;;;;;;;;;5016026;28;19925;-85
2021/03/02 12:59:12;;;;;;;;;;;;;;;;;;5010618;28;20451;-86
2021/03/02 13:01:39;;;;;;;;;;;;;;;;;;5015071;28;19940;-85
2021/03/02 13:04:07;;;;;;;;;;;;;;;;;;5014786;28;19929;-85
2021/03/02 13:06:35;;;;;;;;;;;;;;;;;;5014883;28;20302;-85
2021/03/02 13:09:02;;;;;;;;;;;;;;;;;;5015085;28;19973;-86
2021/03/02 13:11:30;;;;;;;;;;;;;;;;;;5020137;28;19972;-86
2021/03/02 13:13:57;;;;;;;;;;;;;;;;;;5015554;28;19937;-86
2021/03/02 13:16:24;;;;;;;;;;;;;;;;;;5014611;28;20369;-86
2021/03/02 13:18:52;;;;;;;;;;;;;;;;;;5013135;28;19935;-85
2021/03/02 13:21:19;;;;;;;;;;;;;;;;;;5012600;28;19933;-85
2021/03/02 13:23:47;;;;;;;;;;;;;;;;;;5007661;28;19926;-85
2021/03/02 13:26:15;;;;;;;;;;;;;;;;;;5013286;28;19933;-86
2021/03/02 13:28:44;;;;;;;;;;;;;;;;;;5012363;28;20384;-86
2021/03/02 13:31:11;;;;;;;;;;;;;;;;;;5012742;28;19932;-86
2021/03/02 13:33:42;;;;;;;;;;;;;;;;;;5011627;28;20045;-86
2021/03/02 13:36:09;;;;;;;;;;;;;;;;;;5004289;28;19933;-85
2021/03/02 13:38:36;;;;;;;;;;;;;;;;;;5007825;28;20446;-86
2021/03/02 13:41:04;;;;;;;;;;;;;;;;;;5011780;28;19925;-86
2021/03/02 13:43:35;;;;;;;;;;;;;;;;;;5011701;28;20020;-86
2021/03/02 13:46:02;;;;;;;;;;;;;;;;;;5012187;28;19936;-85
2021/03/02 13:48:30;;;;;;;;;;;;;;;;;;5008122;28;19930;-85
2021/03/02 13:50:58;;;;;;;;;;;;;;;;;;5011414;28;19940;-85
2021/03/02 13:53:25;;;;;;;;;;;;;;;;;;5011663;28;19983;-86
2021/03/02 13:55:52;;;;;;;;;;;;;;;;;;5011959;28;19972;-86
2021/03/02 13:58:19;;;;;;;;;;;;;;;;;;5011200;28;20293;-85
2021/03/02 14:00:47;;;;;;;;;;;;;;;;;;5006939;28;20393;-86
2021/03/02 14:03:15;;;;;;;;;;;;;;;;;;5011875;28;19941;-86
2021/03/02 14:05:43;;;;;;;;;;;;;;;;;;5012493;28;19929;-86
2021/03/02 14:08:11;;;;;;;;;;;;;;;;;;5011266;28;19933;-87
2021/03/02 14:10:38;;;;;;;;;;;;;;;;;;5013420;28;20396;-87
2021/03/02 14:13:06;;;;;;;;;;;;;;;;;;5012559;28;20393;-87
2021/03/02 14:15:34;;;;;;;;;;;;;;;;;;5007911;28;20838;-87
2021/03/02 14:18:02;;;;;;;;;;;;;;;;;;5015624;28;19930;-87
2021/03/02 14:20:30;;;;;;;;;;;;;;;;;;5013948;28;19941;-86
2021/03/02 14:22:58;;;;;;;;;;;;;;;;;;5007643;28;20070;-87
2021/03/02 14:25:25;;;;;;;;;;;;;;;;;;5009137;28;20322;-87
2021/03/02 14:27:53;;;;;;;;;;;;;;;;;;5010444;28;19932;-86
2021/03/02 14:30:20;;;;;;;;;;;;;;;;;;5004444;28;19933;-87
2021/03/02 14:32:48;;;;;;;;;;;;;;;;;;5017691;28;19934;-87
2021/03/02 14:35:15;;;;;;;;;;;;;;;;;;5013766;28;19933;-87
2021/03/02 14:37:43;;;;;;;;;;;;;;;;;;5012945;28;20277;-87
2021/03/02 14:40:11;;;;;;;;;;;;;;;;;;5021951;28;20334;-87
2021/03/02 14:42:39;;;;;;;;;;;;;;;;;;5012400;28;19929;-86
2021/03/02 14:45:09;;;;;;;;;;;;;;;;;;5016895;28;19964;-87
2021/03/02 14:47:37;;;;;;;;;;;;;;;;;;5014489;28;20535;-88
2021/03/02 14:50:05;;;;;;;;;;;;;;;;;;5005936;28;20381;-86
2021/03/02 14:52:32;;;;;;;;;;;;;;;;;;5017850;28;19988;-88
2021/03/02 14:54:59;;;;;;;;;;;;;;;;;;5011568;28;19932;-88
2021/03/02 14:57:27;;;;;;;;;;;;;;;;;;5017635;28;19925;-86
2021/03/02 14:59:56;;;;;;;;;;;;;;;;;;5015924;28;19929;-87
2021/03/02 15:02:24;;;;;;;;;;;;;;;;;;5015999;28;19934;-87
2021/03/02 15:04:52;;;;;;;;;;;;;;;;;;5013498;28;19934;-86
2021/03/02 15:07:20;;;;;;;;;;;;;;;;;;5014982;28;19929;-87
2021/03/02 15:09:47;;;;;;;;;;;;;;;;;;5014924;28;19964;-87
2021/03/02 15:12:15;;;;;;;;;;;;;;;;;;5014791;28;19932;-87
2021/03/02 15:14:42;;;;;;;;;;;;;;;;;;5015594;28;19936;-87
2021/03/02 15:17:10;;;;;;;;;;;;;;;;;;5021710;28;19929;-88
2021/03/02 15:19:39;;;;;;;;;;;;;;;;;;5015761;28;19925;-87
2021/03/02 15:22:06;;;;;;;;;;;;;;;;;;5016168;28;20436;-87
2021/03/02 15:24:34;;;;;;;;;;;;;;;;;;5016807;28;19932;-87
2021/03/02 15:27:01;;;;;;;;;;;;;;;;;;5017333;28;19936;-87
2021/03/02 15:29:29;;;;;;;;;;;;;;;;;;5018034;28;20360;-87
2021/03/02 15:31:56;;;;;;;;;;;;;;;;;;5020073;28;19940;-87
2021/03/02 15:34:24;;;;;;;;;;;;;;;;;;5017839;28;19933;-87
2021/03/02 15:36:51;;;;;;;;;;;;;;;;;;5014466;28;19929;-87
2021/03/02 15:39:18;;;;;;;;;;;;;;;;;;5013793;28;20377;-87
2021/03/02 15:41:46;;;;;;;;;;;;;;;;;;5014596;28;19936;-87
2021/03/02 15:44:13;;;;;;;;;;;;;;;;;;5016488;28;20017;-86
2021/03/02 15:46:40;;;;;;;;;;;;;;;;;;5013074;28;19930;-86
2021/03/02 15:49:08;;;;;;;;;;;;;;;;;;5004374;28;19930;-87
2021/03/02 15:51:36;;;;;;;;;;;;;;;;;;5014303;28;20004;-87
2021/03/02 15:54:04;;;;;;;;;;;;;;;;;;5010501;28;19929;-87
2021/03/02 15:56:32;;;;;;;;;;;;;;;;;;5003863;28;19976;-87
2021/03/02 15:59:00;;;;;;;;;;;;;;;;;;5014398;28;19929;-87
2021/03/02 16:01:27;;;;;;;;;;;;;;;;;;5014672;28;19925;-88
2021/03/02 16:03:55;;;;;;;;;;;;;;;;;;5012537;28;19976;-87
2021/03/02 16:06:23;;;;;;;;;;;;;;;;;;5013751;28;19979;-87
2021/03/02 16:08:50;;;;;;;;;;;;;;;;;;5016096;28;20012;-87
2021/03/02 16:11:17;;;;;;;;;;;;;;;;;;5013959;28;19934;-87
2021/03/02 16:13:50;;;;;;;;;;;;;;;;;;5014463;28;19929;-87
2021/03/02 16:16:17;;;;;;;;;;;;;;;;;;5018782;28;19941;-86
2021/03/02 16:18:45;;;;;;;;;;;;;;;;;;5013230;28;19933;-86
2021/03/02 16:21:12;;;;;;;;;;;;;;;;;;5013834;28;19930;-85
2021/03/02 16:23:40;;;;;;;;;;;;;;;;;;5015161;28;19926;-86
2021/03/02 16:26:08;;;;;;;;;;;;;;;;;;5001198;28;19944;-86
2021/03/02 16:28:36;;;;;;;;;;;;;;;;;;5013548;28;20350;-85
2021/03/02 16:31:03;;;;;;;;;;;;;;;;;;5011289;28;19929;-85
2021/03/02 16:33:31;;;;;;;;;;;;;;;;;;5016249;28;19929;-85
2021/03/02 16:35:59;;;;;;;;;;;;;;;;;;5011734;28;20410;-84
2021/03/02 16:38:26;;;;;;;;;;;;;;;;;;5025000;28;19929;-85
2021/03/02 16:40:53;;;;;;;;;;;;;;;;;;5010461;28;19971;-85
2021/03/02 16:43:21;;;;;;;;;;;;;;;;;;5012956;28;19992;-85
2021/03/02 16:45:49;;;;;;;;;;;;;;;;;;5012296;28;19929;-84
2021/03/02 16:48:16;;;;;;;;;;;;;;;;;;5011714;28;20395;-85
2021/03/02 16:50:44;;;;;;;;;;;;;;;;;;5011809;28;20432;-85
2021/03/02 16:53:12;;;;;;;;;;;;;;;;;;5011550;28;19976;-85
2021/03/02 16:55:39;;;;;;;;;;;;;;;;;;5013247;28;19977;-85
2021/03/02 16:58:07;;;;;;;;;;;;;;;;;;5010580;28;19958;-85
2021/03/02 17:00:34;;;;;;;;;;;;;;;;;;5013022;28;19936;-85
2021/03/02 17:03:02;;;;;;;;;;;;;;;;;;5013780;28;19929;-85
2021/03/02 17:05:29;;;;;;;;;;;;;;;;;;5008986;28;20013;-85
2021/03/02 17:07:56;;;;;;;;;;;;;;;;;;5022242;28;19947;-84
2021/03/02 17:10:24;;;;;;;;;;;;;;;;;;5020642;28;19929;-84